CDG weather

Charles de Gaulle International Airport
Paris, Île-de-France, France

Public forecast

Using degrees Celsius for public forecast. Weather courtesy of forecast.io.

METAR (pilot weather report)

Retrieved 2019/01/21 13:30 UTC (1 minute ago):

LFPG 211330Z VRB03KT CAVOK 02/M03 Q1022 NOSIG

TAF (pilot weather forecast)

Retrieved 2019/01/21 12:22 UTC (1 hour ago):

TAF LFPG 211100Z 2112/2218 02003KT 6000 NSC TX02/2114Z TNM02/2200Z BECMG 2122/2124 20010KT BECMG 2205/2207 4000 -SN BKN010 TEMPO 2208/2212 1500 SN BKN004 BECMG 2212/2214 6000 NSW BKN010 PROB40 TEMPO 2213/2215 -SHRASN BKN008